sensor_id;sensor_type;location;lat;lon;timestamp;temperature;humidity
41469;DHT22;27206;47.032;15.484;2023-07-02T00:01:12;17.70;1.00
41469;DHT22;27206;47.032;15.484;2023-07-02T00:03:38;17.80;1.00
41469;DHT22;27206;47.032;15.484;2023-07-02T00:06:04;17.80;1.00
41469;DHT22;27206;47.032;15.484;2023-07-02T00:08:30;17.80;1.00
41469;DHT22;27206;47.032;15.484;2023-07-02T00:10:56;17.80;1.00
41469;DHT22;27206;47.032;15.484;2023-07-02T00:13:22;17.80;1.00
41469;DHT22;27206;47.032;15.484;2023-07-02T00:15:47;17.80;1.00
41469;DHT22;27206;47.032;15.484;2023-07-02T00:18:13;17.70;1.00
41469;DHT22;27206;47.032;15.484;2023-07-02T00:20:42;17.60;1.00
41469;DHT22;27206;47.032;15.484;2023-07-02T00:23:08;17.70;1.00
41469;DHT22;27206;47.032;15.484;2023-07-02T00:25:38;17.70;1.00
41469;DHT22;27206;47.032;15.484;2023-07-02T00:28:04;17.60;1.00
41469;DHT22;27206;47.032;15.484;2023-07-02T00:30:29;17.60;1.00
41469;DHT22;27206;47.032;15.484;2023-07-02T00:32:55;17.60;1.00
41469;DHT22;27206;47.032;15.484;2023-07-02T00:35:21;17.50;1.00
41469;DHT22;27206;47.032;15.484;2023-07-02T00:37:47;17.50;1.00
41469;DHT22;27206;47.032;15.484;2023-07-02T00:40:13;17.50;1.00
41469;DHT22;27206;47.032;15.484;2023-07-02T00:42:38;17.50;1.00
41469;DHT22;27206;47.032;15.484;2023-07-02T00:45:04;17.60;1.00
41469;DHT22;27206;47.032;15.484;2023-07-02T00:47:33;17.50;1.00
41469;DHT22;27206;47.032;15.484;2023-07-02T00:50:00;17.50;1.00
41469;DHT22;27206;47.032;15.484;2023-07-02T00:52:27;17.50;1.00
41469;DHT22;27206;47.032;15.484;2023-07-02T00:54:53;17.50;1.00
41469;DHT22;27206;47.032;15.484;2023-07-02T00:57:19;17.40;1.00
41469;DHT22;27206;47.032;15.484;2023-07-02T00:59:45;17.50;1.00
41469;DHT22;27206;47.032;15.484;2023-07-02T01:02:11;17.50;1.00
41469;DHT22;27206;47.032;15.484;2023-07-02T01:04:38;17.50;1.00
41469;DHT22;27206;47.032;15.484;2023-07-02T01:07:04;17.50;1.00
41469;DHT22;27206;47.032;15.484;2023-07-02T01:09:35;17.60;1.00
41469;DHT22;27206;47.032;15.484;2023-07-02T01:12:04;17.50;1.00
41469;DHT22;27206;47.032;15.484;2023-07-02T01:14:37;17.50;1.00
41469;DHT22;27206;47.032;15.484;2023-07-02T01:17:05;17.50;1.00
41469;DHT22;27206;47.032;15.484;2023-07-02T01:19:46;17.50;1.00
41469;DHT22;27206;47.032;15.484;2023-07-02T01:22:18;17.50;1.00
41469;DHT22;27206;47.032;15.484;2023-07-02T01:24:44;17.50;1.00
41469;DHT22;27206;47.032;15.484;2023-07-02T01:27:11;17.50;1.00
41469;DHT22;27206;47.032;15.484;2023-07-02T01:29:37;17.40;1.00
41469;DHT22;27206;47.032;15.484;2023-07-02T01:32:03;17.40;1.00
41469;DHT22;27206;47.032;15.484;2023-07-02T01:34:29;17.50;1.00
41469;DHT22;27206;47.032;15.484;2023-07-02T01:36:54;17.40;1.00
41469;DHT22;27206;47.032;15.484;2023-07-02T01:39:20;17.40;1.00
41469;DHT22;27206;47.032;15.484;2023-07-02T01:41:53;17.40;1.00
41469;DHT22;27206;47.032;15.484;2023-07-02T01:44:19;17.40;1.00
41469;DHT22;27206;47.032;15.484;2023-07-02T01:46:46;17.40;1.00
41469;DHT22;27206;47.032;15.484;2023-07-02T01:49:18;17.40;1.00
41469;DHT22;27206;47.032;15.484;2023-07-02T01:51:54;17.30;1.00
41469;DHT22;27206;47.032;15.484;2023-07-02T01:54:21;17.30;1.00
41469;DHT22;27206;47.032;15.484;2023-07-02T01:56:47;17.20;1.00
41469;DHT22;27206;47.032;15.484;2023-07-02T01:59:12;17.20;1.00
41469;DHT22;27206;47.032;15.484;2023-07-02T02:01:38;17.20;1.00
41469;DHT22;27206;47.032;15.484;2023-07-02T02:04:09;17.10;1.00
41469;DHT22;27206;47.032;15.484;2023-07-02T02:06:35;17.10;1.00
41469;DHT22;27206;47.032;15.484;2023-07-02T02:09:03;17.00;1.00
41469;DHT22;27206;47.032;15.484;2023-07-02T02:11:32;16.90;1.00
41469;DHT22;27206;47.032;15.484;2023-07-02T02:13:58;16.80;1.00
41469;DHT22;27206;47.032;15.484;2023-07-02T02:16:27;16.90;1.00
41469;DHT22;27206;47.032;15.484;2023-07-02T02:18:53;16.80;1.00
41469;DHT22;27206;47.032;15.484;2023-07-02T02:21:22;16.80;1.00
41469;DHT22;27206;47.032;15.484;2023-07-02T02:23:48;16.80;1.00
41469;DHT22;27206;47.032;15.484;2023-07-02T02:26:14;16.80;1.00
41469;DHT22;27206;47.032;15.484;2023-07-02T02:28:40;16.70;1.00
41469;DHT22;27206;47.032;15.484;2023-07-02T02:31:06;16.70;1.00
41469;DHT22;27206;47.032;15.484;2023-07-02T02:33:32;16.70;1.00
41469;DHT22;27206;47.032;15.484;2023-07-02T02:35:58;16.60;1.00
41469;DHT22;27206;47.032;15.484;2023-07-02T02:38:24;16.50;1.00
41469;DHT22;27206;47.032;15.484;2023-07-02T02:40:49;16.50;1.00
41469;DHT22;27206;47.032;15.484;2023-07-02T02:43:15;16.50;1.00
41469;DHT22;27206;47.032;15.484;2023-07-02T02:45:42;16.40;1.00
41469;DHT22;27206;47.032;15.484;2023-07-02T02:48:08;16.30;1.00
41469;DHT22;27206;47.032;15.484;2023-07-02T02:50:33;16.30;1.00
41469;DHT22;27206;47.032;15.484;2023-07-02T02:52:59;16.40;99.90
41469;DHT22;27206;47.032;15.484;2023-07-02T02:55:25;16.40;99.90
41469;DHT22;27206;47.032;15.484;2023-07-02T02:57:51;16.40;99.90
41469;DHT22;27206;47.032;15.484;2023-07-02T03:00:17;16.40;99.90
41469;DHT22;27206;47.032;15.484;2023-07-02T03:02:43;16.40;99.90
41469;DHT22;27206;47.032;15.484;2023-07-02T03:05:08;16.40;99.90
41469;DHT22;27206;47.032;15.484;2023-07-02T03:07:34;16.40;99.90
41469;DHT22;27206;47.032;15.484;2023-07-02T03:10:00;16.30;99.90
41469;DHT22;27206;47.032;15.484;2023-07-02T03:12:26;16.40;99.90
41469;DHT22;27206;47.032;15.484;2023-07-02T03:14:52;16.40;99.90
41469;DHT22;27206;47.032;15.484;2023-07-02T03:17:23;16.30;99.90
41469;DHT22;27206;47.032;15.484;2023-07-02T03:19:49;16.30;99.90
41469;DHT22;27206;47.032;15.484;2023-07-02T03:22:14;16.40;99.90
41469;DHT22;27206;47.032;15.484;2023-07-02T03:24:40;16.40;99.90
41469;DHT22;27206;47.032;15.484;2023-07-02T03:27:06;16.50;99.90
41469;DHT22;27206;47.032;15.484;2023-07-02T03:29:35;16.50;99.90
41469;DHT22;27206;47.032;15.484;2023-07-02T03:32:03;16.60;99.90
41469;DHT22;27206;47.032;15.484;2023-07-02T03:34:29;16.60;99.90
41469;DHT22;27206;47.032;15.484;2023-07-02T03:36:55;16.60;99.90
41469;DHT22;27206;47.032;15.484;2023-07-02T03:39:20;16.60;99.90
41469;DHT22;27206;47.032;15.484;2023-07-02T03:41:46;16.50;99.90
41469;DHT22;27206;47.032;15.484;2023-07-02T03:44:12;16.50;99.90
41469;DHT22;27206;47.032;15.484;2023-07-02T03:46:37;16.50;99.90
41469;DHT22;27206;47.032;15.484;2023-07-02T03:49:03;16.40;99.90
41469;DHT22;27206;47.032;15.484;2023-07-02T03:51:30;16.40;99.90
41469;DHT22;27206;47.032;15.484;2023-07-02T03:53:55;16.50;1.00
41469;DHT22;27206;47.032;15.484;2023-07-02T03:56:21;16.50;1.00
41469;DHT22;27206;47.032;15.484;2023-07-02T03:58:47;16.60;1.00
41469;DHT22;27206;47.032;15.484;2023-07-02T04:01:13;16.60;1.00
41469;DHT22;27206;47.032;15.484;2023-07-02T04:03:39;16.70;1.00
41469;DHT22;27206;47.032;15.484;2023-07-02T04:06:04;16.80;1.00
41469;DHT22;27206;47.032;15.484;2023-07-02T04:08:33;16.90;99.90
41469;DHT22;27206;47.032;15.484;2023-07-02T04:10:59;16.90;99.90
41469;DHT22;27206;47.032;15.484;2023-07-02T04:13:25;17.00;99.90
41469;DHT22;27206;47.032;15.484;2023-07-02T04:15:51;17.10;99.90
41469;DHT22;27206;47.032;15.484;2023-07-02T04:18:16;17.20;99.90
41469;DHT22;27206;47.032;15.484;2023-07-02T04:20:42;17.20;99.90
41469;DHT22;27206;47.032;15.484;2023-07-02T04:23:07;17.30;99.90
41469;DHT22;27206;47.032;15.484;2023-07-02T04:25:33;17.30;99.90
41469;DHT22;27206;47.032;15.484;2023-07-02T04:27:59;17.30;99.90
41469;DHT22;27206;47.032;15.484;2023-07-02T04:30:25;17.40;99.90
41469;DHT22;27206;47.032;15.484;2023-07-02T04:32:51;17.50;99.90
41469;DHT22;27206;47.032;15.484;2023-07-02T04:35:17;17.50;99.90
41469;DHT22;27206;47.032;15.484;2023-07-02T04:37:44;17.50;99.90
41469;DHT22;27206;47.032;15.484;2023-07-02T04:40:09;17.50;99.90
41469;DHT22;27206;47.032;15.484;2023-07-02T04:42:39;17.50;99.90
41469;DHT22;27206;47.032;15.484;2023-07-02T04:45:06;17.50;99.90
41469;DHT22;27206;47.032;15.484;2023-07-02T04:47:32;17.50;99.90
41469;DHT22;27206;47.032;15.484;2023-07-02T04:49:58;17.60;99.90
41469;DHT22;27206;47.032;15.484;2023-07-02T04:52:24;17.60;99.90
41469;DHT22;27206;47.032;15.484;2023-07-02T04:54:50;17.60;99.90
41469;DHT22;27206;47.032;15.484;2023-07-02T04:57:15;17.70;99.90
41469;DHT22;27206;47.032;15.484;2023-07-02T04:59:42;17.70;99.90
41469;DHT22;27206;47.032;15.484;2023-07-02T05:02:08;17.70;99.90
41469;DHT22;27206;47.032;15.484;2023-07-02T05:04:33;17.70;99.90
41469;DHT22;27206;47.032;15.484;2023-07-02T05:07:03;17.80;99.90
41469;DHT22;27206;47.032;15.484;2023-07-02T05:09:28;17.90;99.90
41469;DHT22;27206;47.032;15.484;2023-07-02T05:11:54;17.90;99.90
41469;DHT22;27206;47.032;15.484;2023-07-02T05:14:20;18.00;99.90
41469;DHT22;27206;47.032;15.484;2023-07-02T05:16:45;18.00;99.90
41469;DHT22;27206;47.032;15.484;2023-07-02T05:19:11;18.10;99.90
41469;DHT22;27206;47.032;15.484;2023-07-02T05:21:37;18.10;99.90
41469;DHT22;27206;47.032;15.484;2023-07-02T05:24:02;18.10;99.90
41469;DHT22;27206;47.032;15.484;2023-07-02T05:26:28;18.10;99.90
41469;DHT22;27206;47.032;15.484;2023-07-02T05:28:54;18.10;99.90
41469;DHT22;27206;47.032;15.484;2023-07-02T05:31:19;18.00;99.90
41469;DHT22;27206;47.032;15.484;2023-07-02T05:33:45;18.00;99.90
41469;DHT22;27206;47.032;15.484;2023-07-02T05:36:10;18.10;99.90
41469;DHT22;27206;47.032;15.484;2023-07-02T05:38:39;18.20;99.90
41469;DHT22;27206;47.032;15.484;2023-07-02T05:41:04;18.30;99.90
41469;DHT22;27206;47.032;15.484;2023-07-02T05:43:30;18.30;99.90
41469;DHT22;27206;47.032;15.484;2023-07-02T05:45:58;18.40;99.90
41469;DHT22;27206;47.032;15.484;2023-07-02T05:48:27;18.50;99.90
41469;DHT22;27206;47.032;15.484;2023-07-02T05:50:53;18.60;99.90
41469;DHT22;27206;47.032;15.484;2023-07-02T05:53:19;18.70;99.90
41469;DHT22;27206;47.032;15.484;2023-07-02T05:55:45;18.70;99.90
41469;DHT22;27206;47.032;15.484;2023-07-02T05:58:11;18.60;99.90
41469;DHT22;27206;47.032;15.484;2023-07-02T06:00:36;18.60;99.90
41469;DHT22;27206;47.032;15.484;2023-07-02T06:03:02;18.60;99.90
41469;DHT22;27206;47.032;15.484;2023-07-02T06:05:28;18.60;99.90
41469;DHT22;27206;47.032;15.484;2023-07-02T06:07:54;18.60;99.90
41469;DHT22;27206;47.032;15.484;2023-07-02T06:10:20;18.70;99.90
41469;DHT22;27206;47.032;15.484;2023-07-02T06:12:46;18.80;99.90
41469;DHT22;27206;47.032;15.484;2023-07-02T06:15:11;18.90;99.90
41469;DHT22;27206;47.032;15.484;2023-07-02T06:17:37;19.00;99.90
41469;DHT22;27206;47.032;15.484;2023-07-02T06:20:06;19.10;99.90
41469;DHT22;27206;47.032;15.484;2023-07-02T06:22:32;19.10;99.90
41469;DHT22;27206;47.032;15.484;2023-07-02T06:24:58;19.10;99.90
41469;DHT22;27206;47.032;15.484;2023-07-02T06:27:24;19.20;99.90
41469;DHT22;27206;47.032;15.484;2023-07-02T06:29:49;19.20;99.90
41469;DHT22;27206;47.032;15.484;2023-07-02T06:32:17;19.40;99.90
41469;DHT22;27206;47.032;15.484;2023-07-02T06:34:42;19.40;99.90
41469;DHT22;27206;47.032;15.484;2023-07-02T06:37:08;19.60;99.90
41469;DHT22;27206;47.032;15.484;2023-07-02T06:39:33;19.60;99.90
41469;DHT22;27206;47.032;15.484;2023-07-02T06:41:59;19.70;99.90
41469;DHT22;27206;47.032;15.484;2023-07-02T06:44:25;19.60;99.90
41469;DHT22;27206;47.032;15.484;2023-07-02T06:46:53;19.60;99.90
41469;DHT22;27206;47.032;15.484;2023-07-02T06:49:19;19.40;99.90
41469;DHT22;27206;47.032;15.484;2023-07-02T06:51:45;19.40;99.90
41469;DHT22;27206;47.032;15.484;2023-07-02T06:54:13;19.40;99.90
41469;DHT22;27206;47.032;15.484;2023-07-02T06:56:39;19.40;99.90
41469;DHT22;27206;47.032;15.484;2023-07-02T06:59:04;19.50;99.90
41469;DHT22;27206;47.032;15.484;2023-07-02T07:01:30;19.60;99.90
41469;DHT22;27206;47.032;15.484;2023-07-02T07:03:55;19.60;99.90
41469;DHT22;27206;47.032;15.484;2023-07-02T07:06:21;19.60;99.90
41469;DHT22;27206;47.032;15.484;2023-07-02T07:08:47;19.50;99.90
41469;DHT22;27206;47.032;15.484;2023-07-02T07:11:12;19.60;99.90
41469;DHT22;27206;47.032;15.484;2023-07-02T07:13:38;19.80;99.90
41469;DHT22;27206;47.032;15.484;2023-07-02T07:16:04;20.10;99.90
41469;DHT22;27206;47.032;15.484;2023-07-02T07:18:29;20.30;99.90
41469;DHT22;27206;47.032;15.484;2023-07-02T07:20:55;20.60;99.90
41469;DHT22;27206;47.032;15.484;2023-07-02T07:23:21;20.90;99.90
41469;DHT22;27206;47.032;15.484;2023-07-02T07:25:47;21.20;99.90
41469;DHT22;27206;47.032;15.484;2023-07-02T07:28:12;21.50;99.90
41469;DHT22;27206;47.032;15.484;2023-07-02T07:30:42;21.80;99.90
41469;DHT22;27206;47.032;15.484;2023-07-02T07:33:08;22.10;99.90
41469;DHT22;27206;47.032;15.484;2023-07-02T07:35:34;22.10;99.90
41469;DHT22;27206;47.032;15.484;2023-07-02T07:37:59;22.40;99.90
41469;DHT22;27206;47.032;15.484;2023-07-02T07:40:25;22.50;99.90
41469;DHT22;27206;47.032;15.484;2023-07-02T07:42:50;22.80;99.90
41469;DHT22;27206;47.032;15.484;2023-07-02T07:45:16;22.80;99.90
41469;DHT22;27206;47.032;15.484;2023-07-02T07:47:42;23.20;99.90
41469;DHT22;27206;47.032;15.484;2023-07-02T07:50:08;23.50;99.90
41469;DHT22;27206;47.032;15.484;2023-07-02T07:52:42;23.60;99.90
41469;DHT22;27206;47.032;15.484;2023-07-02T07:55:09;24.00;99.90
41469;DHT22;27206;47.032;15.484;2023-07-02T07:57:35;24.00;99.90
41469;DHT22;27206;47.032;15.484;2023-07-02T08:00:05;24.40;99.90
41469;DHT22;27206;47.032;15.484;2023-07-02T08:02:33;24.20;99.90
41469;DHT22;27206;47.032;15.484;2023-07-02T08:04:59;23.90;99.90
41469;DHT22;27206;47.032;15.484;2023-07-02T08:07:24;23.80;99.90
41469;DHT22;27206;47.032;15.484;2023-07-02T08:09:50;23.80;99.90
41469;DHT22;27206;47.032;15.484;2023-07-02T08:12:15;23.70;99.90
41469;DHT22;27206;47.032;15.484;2023-07-02T08:14:44;23.80;99.90
41469;DHT22;27206;47.032;15.484;2023-07-02T08:17:10;23.80;99.90
41469;DHT22;27206;47.032;15.484;2023-07-02T08:19:35;23.90;99.90
41469;DHT22;27206;47.032;15.484;2023-07-02T08:22:01;23.90;99.90
41469;DHT22;27206;47.032;15.484;2023-07-02T08:24:28;24.00;99.90
41469;DHT22;27206;47.032;15.484;2023-07-02T08:26:53;24.00;99.90
41469;DHT22;27206;47.032;15.484;2023-07-02T08:29:19;23.80;99.90
41469;DHT22;27206;47.032;15.484;2023-07-02T08:31:45;23.70;99.90
41469;DHT22;27206;47.032;15.484;2023-07-02T08:34:10;23.60;99.90
41469;DHT22;27206;47.032;15.484;2023-07-02T08:36:36;23.60;99.90
41469;DHT22;27206;47.032;15.484;2023-07-02T08:39:01;23.70;99.90
41469;DHT22;27206;47.032;15.484;2023-07-02T08:41:29;24.00;99.90
41469;DHT22;27206;47.032;15.484;2023-07-02T08:43:55;24.20;99.90
41469;DHT22;27206;47.032;15.484;2023-07-02T08:46:21;24.50;99.90
41469;DHT22;27206;47.032;15.484;2023-07-02T08:48:47;24.50;99.90
41469;DHT22;27206;47.032;15.484;2023-07-02T08:51:13;24.80;99.90
41469;DHT22;27206;47.032;15.484;2023-07-02T08:53:38;25.10;99.90
41469;DHT22;27206;47.032;15.484;2023-07-02T08:56:04;25.30;99.90
41469;DHT22;27206;47.032;15.484;2023-07-02T08:58:30;25.30;99.90
41469;DHT22;27206;47.032;15.484;2023-07-02T09:01:09;25.40;99.90
41469;DHT22;27206;47.032;15.484;2023-07-02T09:03:36;25.50;99.90
41469;DHT22;27206;47.032;15.484;2023-07-02T09:06:05;25.70;99.90
41469;DHT22;27206;47.032;15.484;2023-07-02T09:08:32;26.00;99.90
41469;DHT22;27206;47.032;15.484;2023-07-02T09:11:17;25.90;99.90
41469;DHT22;27206;47.032;15.484;2023-07-02T09:13:51;25.90;99.90
41469;DHT22;27206;47.032;15.484;2023-07-02T09:16:21;26.10;99.90
41469;DHT22;27206;47.032;15.484;2023-07-02T09:19:04;26.20;99.90
41469;DHT22;27206;47.032;15.484;2023-07-02T09:21:47;26.10;99.90
41469;DHT22;27206;47.032;15.484;2023-07-02T09:24:17;25.80;99.90
41469;DHT22;27206;47.032;15.484;2023-07-02T09:26:45;26.00;99.90
41469;DHT22;27206;47.032;15.484;2023-07-02T09:29:12;26.30;99.90
41469;DHT22;27206;47.032;15.484;2023-07-02T09:31:45;26.10;99.90
41469;DHT22;27206;47.032;15.484;2023-07-02T09:34:11;26.20;99.90
41469;DHT22;27206;47.032;15.484;2023-07-02T09:36:37;26.60;99.90
41469;DHT22;27206;47.032;15.484;2023-07-02T09:39:11;26.50;99.90
41469;DHT22;27206;47.032;15.484;2023-07-02T09:41:37;26.10;99.90
41469;DHT22;27206;47.032;15.484;2023-07-02T09:44:03;26.50;99.90
41469;DHT22;27206;47.032;15.484;2023-07-02T09:46:30;26.80;99.90
41469;DHT22;27206;47.032;15.484;2023-07-02T09:48:57;27.10;99.90
41469;DHT22;27206;47.032;15.484;2023-07-02T09:51:24;27.20;99.90
41469;DHT22;27206;47.032;15.484;2023-07-02T09:53:51;27.10;99.90
41469;DHT22;27206;47.032;15.484;2023-07-02T09:56:17;27.20;99.90
41469;DHT22;27206;47.032;15.484;2023-07-02T09:58:44;27.00;99.90
41469;DHT22;27206;47.032;15.484;2023-07-02T10:01:10;26.80;99.90
41469;DHT22;27206;47.032;15.484;2023-07-02T10:03:36;26.80;99.90
41469;DHT22;27206;47.032;15.484;2023-07-02T10:06:05;27.10;99.90
41469;DHT22;27206;47.032;15.484;2023-07-02T10:08:31;27.30;99.90
41469;DHT22;27206;47.032;15.484;2023-07-02T10:11:13;27.20;99.90
41469;DHT22;27206;47.032;15.484;2023-07-02T10:13:39;27.00;99.90
41469;DHT22;27206;47.032;15.484;2023-07-02T10:16:06;26.70;99.90
41469;DHT22;27206;47.032;15.484;2023-07-02T10:18:32;26.60;99.90
41469;DHT22;27206;47.032;15.484;2023-07-02T10:20:58;26.70;99.90
41469;DHT22;27206;47.032;15.484;2023-07-02T10:23:36;26.80;99.90
41469;DHT22;27206;47.032;15.484;2023-07-02T10:26:34;26.50;99.90
41469;DHT22;27206;47.032;15.484;2023-07-02T10:28:59;26.60;99.90
41469;DHT22;27206;47.032;15.484;2023-07-02T10:31:25;26.70;99.90
41469;DHT22;27206;47.032;15.484;2023-07-02T10:33:51;26.70;99.90
41469;DHT22;27206;47.032;15.484;2023-07-02T10:36:21;26.80;99.90
41469;DHT22;27206;47.032;15.484;2023-07-02T10:38:47;26.60;99.90
41469;DHT22;27206;47.032;15.484;2023-07-02T10:41:27;26.60;99.90
41469;DHT22;27206;47.032;15.484;2023-07-02T10:43:53;26.80;99.90
41469;DHT22;27206;47.032;15.484;2023-07-02T10:46:20;26.60;99.90
41469;DHT22;27206;47.032;15.484;2023-07-02T10:48:56;26.60;99.90
41469;DHT22;27206;47.032;15.484;2023-07-02T10:51:22;26.50;99.90
41469;DHT22;27206;47.032;15.484;2023-07-02T10:53:59;26.30;99.90
41469;DHT22;27206;47.032;15.484;2023-07-02T10:56:28;26.30;99.90
41469;DHT22;27206;47.032;15.484;2023-07-02T10:58:55;26.30;99.90
41469;DHT22;27206;47.032;15.484;2023-07-02T11:01:28;26.40;99.90
41469;DHT22;27206;47.032;15.484;2023-07-02T11:03:58;26.40;99.90
41469;DHT22;27206;47.032;15.484;2023-07-02T11:06:25;26.60;99.90
41469;DHT22;27206;47.032;15.484;2023-07-02T11:08:51;26.80;99.90
41469;DHT22;27206;47.032;15.484;2023-07-02T11:11:17;26.80;99.90
41469;DHT22;27206;47.032;15.484;2023-07-02T11:13:47;26.90;99.90
41469;DHT22;27206;47.032;15.484;2023-07-02T11:16:20;27.10;99.90
41469;DHT22;27206;47.032;15.484;2023-07-02T11:18:46;27.20;99.90
41469;DHT22;27206;47.032;15.484;2023-07-02T11:21:11;27.30;99.90
41469;DHT22;27206;47.032;15.484;2023-07-02T11:23:37;27.10;99.90
41469;DHT22;27206;47.032;15.484;2023-07-02T11:26:03;28.20;99.90
41469;DHT22;27206;47.032;15.484;2023-07-02T11:28:31;28.80;99.90
41469;DHT22;27206;47.032;15.484;2023-07-02T11:30:58;28.90;99.90
41469;DHT22;27206;47.032;15.484;2023-07-02T11:33:37;28.60;99.90
41469;DHT22;27206;47.032;15.484;2023-07-02T11:36:03;27.80;99.90
41469;DHT22;27206;47.032;15.484;2023-07-02T11:38:29;28.70;99.90
41469;DHT22;27206;47.032;15.484;2023-07-02T11:40:55;29.40;99.90
41469;DHT22;27206;47.032;15.484;2023-07-02T11:43:20;29.00;99.90
41469;DHT22;27206;47.032;15.484;2023-07-02T11:45:46;28.60;99.90
41469;DHT22;27206;47.032;15.484;2023-07-02T11:48:12;29.00;99.90
41469;DHT22;27206;47.032;15.484;2023-07-02T11:50:38;29.00;99.90
41469;DHT22;27206;47.032;15.484;2023-07-02T11:53:04;29.10;99.90
41469;DHT22;27206;47.032;15.484;2023-07-02T11:55:29;28.60;99.90
41469;DHT22;27206;47.032;15.484;2023-07-02T11:57:55;28.40;99.90
41469;DHT22;27206;47.032;15.484;2023-07-02T12:00:21;28.20;99.90
41469;DHT22;27206;47.032;15.484;2023-07-02T12:02:46;28.50;99.90
41469;DHT22;27206;47.032;15.484;2023-07-02T12:05:12;28.90;99.90
41469;DHT22;27206;47.032;15.484;2023-07-02T12:07:37;29.80;99.90
41469;DHT22;27206;47.032;15.484;2023-07-02T12:10:03;30.40;99.90
41469;DHT22;27206;47.032;15.484;2023-07-02T12:12:29;30.50;99.90
41469;DHT22;27206;47.032;15.484;2023-07-02T12:14:55;30.00;99.90
41469;DHT22;27206;47.032;15.484;2023-07-02T12:17:21;29.60;99.90
41469;DHT22;27206;47.032;15.484;2023-07-02T12:19:46;29.70;99.90
41469;DHT22;27206;47.032;15.484;2023-07-02T12:22:12;30.10;99.90
41469;DHT22;27206;47.032;15.484;2023-07-02T12:24:40;29.90;99.90
41469;DHT22;27206;47.032;15.484;2023-07-02T12:27:06;29.10;99.90
41469;DHT22;27206;47.032;15.484;2023-07-02T12:29:32;28.40;99.90
41469;DHT22;27206;47.032;15.484;2023-07-02T12:31:57;28.50;99.90
41469;DHT22;27206;47.032;15.484;2023-07-02T12:34:23;28.30;99.90
41469;DHT22;27206;47.032;15.484;2023-07-02T12:36:49;28.30;99.90
41469;DHT22;27206;47.032;15.484;2023-07-02T12:39:14;28.70;99.90
41469;DHT22;27206;47.032;15.484;2023-07-02T12:41:40;28.80;99.90
41469;DHT22;27206;47.032;15.484;2023-07-02T12:44:06;28.60;99.90
41469;DHT22;27206;47.032;15.484;2023-07-02T12:46:31;28.30;99.90
41469;DHT22;27206;47.032;15.484;2023-07-02T12:48:57;28.30;99.90
41469;DHT22;27206;47.032;15.484;2023-07-02T12:51:23;28.60;99.90
41469;DHT22;27206;47.032;15.484;2023-07-02T12:53:48;28.40;99.90
41469;DHT22;27206;47.032;15.484;2023-07-02T12:56:14;28.10;99.90
41469;DHT22;27206;47.032;15.484;2023-07-02T12:58:39;28.20;99.90
41469;DHT22;27206;47.032;15.484;2023-07-02T13:01:05;28.10;99.90
41469;DHT22;27206;47.032;15.484;2023-07-02T13:03:31;27.90;99.90
41469;DHT22;27206;47.032;15.484;2023-07-02T13:05:56;27.50;99.90
41469;DHT22;27206;47.032;15.484;2023-07-02T13:08:22;27.10;99.90
41469;DHT22;27206;47.032;15.484;2023-07-02T13:10:47;26.60;99.90
41469;DHT22;27206;47.032;15.484;2023-07-02T13:13:13;26.40;99.90
41469;DHT22;27206;47.032;15.484;2023-07-02T13:15:39;26.00;99.90
41469;DHT22;27206;47.032;15.484;2023-07-02T13:18:04;26.40;99.90
41469;DHT22;27206;47.032;15.484;2023-07-02T13:20:30;27.60;99.90
41469;DHT22;27206;47.032;15.484;2023-07-02T13:22:55;29.20;99.90
41469;DHT22;27206;47.032;15.484;2023-07-02T13:25:21;29.70;99.90
41469;DHT22;27206;47.032;15.484;2023-07-02T13:27:47;29.70;99.90
41469;DHT22;27206;47.032;15.484;2023-07-02T13:30:12;29.70;99.90
41469;DHT22;27206;47.032;15.484;2023-07-02T13:32:38;28.60;99.90
41469;DHT22;27206;47.032;15.484;2023-07-02T13:35:04;28.10;99.90
41469;DHT22;27206;47.032;15.484;2023-07-02T13:37:30;27.80;99.90
41469;DHT22;27206;47.032;15.484;2023-07-02T13:39:55;28.30;99.90
41469;DHT22;27206;47.032;15.484;2023-07-02T13:42:21;28.90;99.90
41469;DHT22;27206;47.032;15.484;2023-07-02T13:44:46;30.30;99.90
41469;DHT22;27206;47.032;15.484;2023-07-02T13:47:12;28.90;99.90
41469;DHT22;27206;47.032;15.484;2023-07-02T13:49:38;28.40;99.90
41469;DHT22;27206;47.032;15.484;2023-07-02T13:52:04;27.80;99.90
41469;DHT22;27206;47.032;15.484;2023-07-02T13:54:29;27.40;99.90
41469;DHT22;27206;47.032;15.484;2023-07-02T13:56:56;27.20;99.90
41469;DHT22;27206;47.032;15.484;2023-07-02T13:59:23;27.40;99.90
41469;DHT22;27206;47.032;15.484;2023-07-02T14:01:49;27.30;99.90
41469;DHT22;27206;47.032;15.484;2023-07-02T14:04:16;27.40;99.90
41469;DHT22;27206;47.032;15.484;2023-07-02T14:06:42;28.20;99.90
41469;DHT22;27206;47.032;15.484;2023-07-02T14:09:08;28.60;99.90
41469;DHT22;27206;47.032;15.484;2023-07-02T14:11:36;28.90;99.90
41469;DHT22;27206;47.032;15.484;2023-07-02T14:14:02;30.10;99.90
41469;DHT22;27206;47.032;15.484;2023-07-02T14:16:28;30.70;99.90
41469;DHT22;27206;47.032;15.484;2023-07-02T14:18:53;29.70;99.90
41469;DHT22;27206;47.032;15.484;2023-07-02T14:21:19;29.10;99.90
41469;DHT22;27206;47.032;15.484;2023-07-02T14:23:45;29.30;99.90
41469;DHT22;27206;47.032;15.484;2023-07-02T14:26:11;29.80;99.90
41469;DHT22;27206;47.032;15.484;2023-07-02T14:28:38;30.10;99.90
41469;DHT22;27206;47.032;15.484;2023-07-02T14:31:04;30.00;99.90
41469;DHT22;27206;47.032;15.484;2023-07-02T14:33:32;29.90;99.90
41469;DHT22;27206;47.032;15.484;2023-07-02T14:35:59;29.80;99.90
41469;DHT22;27206;47.032;15.484;2023-07-02T14:38:25;29.90;99.90
41469;DHT22;27206;47.032;15.484;2023-07-02T14:40:53;30.20;99.90
41469;DHT22;27206;47.032;15.484;2023-07-02T14:43:20;30.10;99.90
41469;DHT22;27206;47.032;15.484;2023-07-02T14:45:51;30.60;99.90
41469;DHT22;27206;47.032;15.484;2023-07-02T14:48:17;30.60;99.90
41469;DHT22;27206;47.032;15.484;2023-07-02T14:50:54;30.60;99.90
41469;DHT22;27206;47.032;15.484;2023-07-02T14:53:21;30.60;99.90
41469;DHT22;27206;47.032;15.484;2023-07-02T14:55:47;29.50;99.90
41469;DHT22;27206;47.032;15.484;2023-07-02T14:58:14;29.10;99.90
41469;DHT22;27206;47.032;15.484;2023-07-02T15:00:48;28.90;99.90
41469;DHT22;27206;47.032;15.484;2023-07-02T15:03:14;28.70;99.90
41469;DHT22;27206;47.032;15.484;2023-07-02T15:05:40;28.50;99.90
41469;DHT22;27206;47.032;15.484;2023-07-02T15:08:09;28.00;99.90
41469;DHT22;27206;47.032;15.484;2023-07-02T15:10:38;27.80;99.90
41469;DHT22;27206;47.032;15.484;2023-07-02T15:13:08;27.60;99.90
41469;DHT22;27206;47.032;15.484;2023-07-02T15:15:34;27.70;99.90
41469;DHT22;27206;47.032;15.484;2023-07-02T15:18:02;27.60;99.90